createdAt,value
2023-04-03T00:02:25.067Z,91.24
2023-04-03T00:10:50.147Z,89.77
2023-04-03T00:19:13.985Z,88.98
2023-04-03T00:27:42.768Z,88.32
2023-04-03T00:36:12.373Z,88.45
2023-04-03T00:44:35.867Z,86.76
2023-04-03T00:53:23.323Z,86.25
2023-04-03T01:01:49.175Z,86.89
2023-04-03T01:10:15.741Z,85.56
2023-04-03T01:18:41.542Z,84.71
2023-04-03T01:27:07.354Z,82.42
2023-04-03T01:35:33.187Z,82.49
2023-04-03T01:43:56.852Z,81.89
2023-04-03T01:52:20.333Z,80.61
2023-04-03T02:00:43.785Z,78.58
2023-04-03T02:09:08.114Z,77.26
2023-04-03T02:17:36.139Z,77.52
2023-04-03T02:26:14.683Z,76.58
2023-04-03T02:34:37.900Z,76.54
2023-04-03T02:43:02.186Z,75.64
2023-04-03T02:51:28.490Z,75.45
2023-04-03T02:59:52.322Z,75.12
2023-04-03T03:08:21.310Z,75.13
2023-04-03T03:16:45.659Z,75.64
2023-04-03T03:25:09.923Z,75.66
2023-04-03T03:33:37.808Z,75.13
2023-04-03T03:42:01.467Z,75.81
2023-04-03T03:50:26.068Z,76.13
2023-04-03T03:58:51.125Z,76.88
2023-04-03T04:07:14.532Z,76.91
2023-04-03T04:15:41.971Z,76.98
2023-04-03T04:24:25.246Z,76.83
2023-04-03T04:32:53.437Z,76.99
2023-04-03T04:41:17.353Z,76.71
2023-04-03T04:49:41.896Z,76.76
2023-04-03T04:58:05.824Z,77.00
2023-04-03T05:06:31.170Z,77.13
2023-04-03T05:14:55.045Z,76.62
2023-04-03T05:23:20.452Z,76.52
2023-04-03T05:31:51.702Z,76.35
2023-04-03T05:40:16.892Z,75.95
2023-04-03T05:48:43.895Z,76.26
2023-04-03T05:57:08.649Z,76.40
2023-04-03T06:05:33.134Z,76.71
2023-04-03T06:13:56.801Z,76.57
2023-04-03T06:22:22.122Z,76.04
